createdAt,value
2023-01-21T00:00:45.560Z,77.38
2023-01-21T00:03:12.909Z,75.43
2023-01-21T00:05:59.317Z,80.85
2023-01-21T00:09:00.328Z,78.65
2023-01-21T00:11:41.090Z,80.53
2023-01-21T00:14:07.715Z,69.93
2023-01-21T00:16:34.258Z,64.47
2023-01-21T00:19:00.855Z,78.00
2023-01-21T00:21:27.352Z,73.93
2023-01-21T00:23:54.013Z,71.20
2023-01-21T00:26:20.521Z,75.65
2023-01-21T00:28:47.405Z,75.03
2023-01-21T00:31:14.169Z,67.70
2023-01-21T00:33:41.640Z,95.45
2023-01-21T00:36:12.241Z,76.53
2023-01-21T00:38:39.178Z,75.85
2023-01-21T00:41:11.397Z,83.30
2023-01-21T00:43:39.397Z,78.30
2023-01-21T00:46:06.302Z,73.95
2023-01-21T00:48:34.160Z,59.25
2023-01-21T00:51:01.148Z,66.10
2023-01-21T00:53:29.870Z,76.22
2023-01-21T00:56:05.256Z,77.63
2023-01-21T00:58:32.507Z,67.05
2023-01-21T01:01:10.809Z,81.75
2023-01-21T01:03:38.116Z,82.10
2023-01-21T01:06:07.402Z,78.25
2023-01-21T01:08:34.036Z,79.57
2023-01-21T01:11:00.986Z,78.97
2023-01-21T01:13:27.797Z,70.88
2023-01-21T01:15:56.055Z,81.03
2023-01-21T01:18:23.782Z,80.30
2023-01-21T01:20:50.471Z,79.28
2023-01-21T01:23:17.031Z,65.00
2023-01-21T01:25:43.862Z,67.00
2023-01-21T01:28:10.451Z,79.05
2023-01-21T01:30:37.087Z,64.70
2023-01-21T01:33:03.719Z,78.72
2023-01-21T01:35:30.280Z,78.20
2023-01-21T01:37:56.888Z,86.97
2023-01-21T01:40:23.456Z,77.03
2023-01-21T01:42:50.024Z,76.05
2023-01-21T01:45:21.309Z,71.65
2023-01-21T01:47:58.122Z,71.97
2023-01-21T01:50:27.595Z,72.28
2023-01-21T01:52:54.576Z,84.97
2023-01-21T01:55:21.746Z,71.22
2023-01-21T01:57:50.313Z,63.47
2023-01-21T02:00:17.674Z,75.85
2023-01-21T02:03:04.635Z,67.13
2023-01-21T02:05:33.049Z,69.28
2023-01-21T02:07:59.839Z,77.57
2023-01-21T02:10:26.363Z,78.72
2023-01-21T02:12:53.122Z,76.30
2023-01-21T02:15:20.390Z,76.55
2023-01-21T02:18:08.889Z,79.53
2023-01-21T02:20:38.272Z,79.40
2023-01-21T02:23:47.018Z,74.65
2023-01-21T02:26:37.794Z,85.35
2023-01-21T02:29:15.930Z,72.18
2023-01-21T02:31:51.517Z,73.07
2023-01-21T02:34:34.693Z,76.70
2023-01-21T02:37:11.165Z,72.90
2023-01-21T02:40:14.032Z,73.20
2023-01-21T02:43:08.069Z,83.38
2023-01-21T02:45:44.283Z,76.53
2023-01-21T02:48:15.126Z,84.03
2023-01-21T02:50:44.999Z,80.28
2023-01-21T02:53:40.893Z,73.37
2023-01-21T02:56:15.861Z,75.93
2023-01-21T02:58:48.314Z,69.32
2023-01-21T03:01:37.162Z,73.70
2023-01-21T03:04:19.755Z,76.93
2023-01-21T03:07:03.536Z,84.75
2023-01-21T03:09:31.955Z,69.10
2023-01-21T03:12:32.455Z,76.15
2023-01-21T03:15:20.793Z,78.15
2023-01-21T03:17:54.853Z,90.63
2023-01-21T03:20:34.356Z,80.20
2023-01-21T03:23:04.576Z,80.32
2023-01-21T03:25:33.838Z,78.55
2023-01-21T03:28:03.723Z,84.00
2023-01-21T03:30:31.595Z,83.72
2023-01-21T03:32:58.831Z,62.88
2023-01-21T03:35:38.569Z,84.35
2023-01-21T03:38:16.760Z,76.70
2023-01-21T03:41:05.742Z,76.35
2023-01-21T03:43:32.387Z,68.07
2023-01-21T03:46:14.220Z,70.00
2023-01-21T03:49:02.318Z,64.65
2023-01-21T03:51:33.922Z,80.82
2023-01-21T03:54:00.480Z,87.35
2023-01-21T03:56:27.286Z,84.88
2023-01-21T03:58:54.511Z,79.63
2023-01-21T04:01:21.168Z,81.30
2023-01-21T04:03:47.976Z,68.38
2023-01-21T04:06:19.399Z,82.85
2023-01-21T04:08:46.231Z,87.10
2023-01-21T04:11:12.948Z,85.22
2023-01-21T04:13:39.504Z,83.10
2023-01-21T04:16:06.534Z,90.32
2023-01-21T04:18:33.129Z,76.97
2023-01-21T04:20:59.691Z,95.43
2023-01-21T04:23:26.280Z,69.38
2023-01-21T04:25:52.937Z,93.78
2023-01-21T04:28:19.742Z,66.35
2023-01-21T04:30:49.201Z,82.60
2023-01-21T04:33:17.207Z,89.80
2023-01-21T04:35:43.770Z,79.25
2023-01-21T04:38:10.433Z,96.70
2023-01-21T04:40:37.123Z,86.72
2023-01-21T04:43:03.664Z,95.28
2023-01-21T04:45:30.283Z,80.72
2023-01-21T04:47:56.805Z,83.32
2023-01-21T04:50:23.286Z,78.28
2023-01-21T04:52:49.816Z,82.68
2023-01-21T04:55:16.469Z,92.90
2023-01-21T04:57:43.017Z,78.35
2023-01-21T05:00:10.049Z,69.60
2023-01-21T05:02:36.752Z,77.80
2023-01-21T05:05:03.508Z,87.65
2023-01-21T05:07:30.002Z,81.20
2023-01-21T05:09:56.589Z,79.57
2023-01-21T05:12:23.117Z,78.95
2023-01-21T05:14:53.531Z,84.50
2023-01-21T05:17:20.583Z,93.18
2023-01-21T05:19:47.050Z,86.38
2023-01-21T05:22:13.532Z,81.95
2023-01-21T05:24:40.045Z,71.40
2023-01-21T05:27:06.515Z,91.03
2023-01-21T05:29:33.017Z,75.50
2023-01-21T05:31:59.506Z,75.90
2023-01-21T05:34:26.056Z,85.07
2023-01-21T05:36:52.711Z,90.88
2023-01-21T05:39:19.307Z,85.57
2023-01-21T05:41:45.839Z,79.07
2023-01-21T05:44:12.339Z,78.25
2023-01-21T05:46:38.821Z,97.40
2023-01-21T05:49:06.191Z,73.13
2023-01-21T05:51:32.729Z,89.70
2023-01-21T05:53:59.289Z,74.82
2023-01-21T05:56:25.786Z,78.20
2023-01-21T05:58:53.342Z,86.75
2023-01-21T06:01:19.911Z,91.00
2023-01-21T06:03:46.409Z,87.57
2023-01-21T06:06:13.231Z,96.40
2023-01-21T06:08:39.729Z,87.53
2023-01-21T06:11:06.214Z,82.90
2023-01-21T06:13:32.731Z,88.07
2023-01-21T06:15:59.451Z,87.40
2023-01-21T06:18:26.952Z,76.78
2023-01-21T06:20:53.490Z,95.32
2023-01-21T06:23:19.971Z,91.07
2023-01-21T06:25:46.494Z,88.60
2023-01-21T06:28:13.326Z,77.30
2023-01-21T06:30:39.867Z,96.28
2023-01-21T06:33:06.453Z,77.32
2023-01-21T06:35:32.988Z,79.30
2023-01-21T06:37:59.548Z,87.68
2023-01-21T06:40:26.587Z,99.22
2023-01-21T06:42:54.205Z,83.28
2023-01-21T06:45:20.761Z,94.72
2023-01-21T06:47:47.254Z,91.60
2023-01-21T06:50:16.402Z,83.53
2023-01-21T06:52:44.787Z,88.60
2023-01-21T06:55:11.742Z,89.82
2023-01-21T06:57:38.751Z,93.30
2023-01-21T07:00:06.355Z,91.72
2023-01-21T07:02:33.454Z,86.90
2023-01-21T07:05:00.071Z,83.63
2023-01-21T07:07:26.903Z,85.35
2023-01-21T07:09:53.429Z,85.50
2023-01-21T07:12:19.944Z,98.00
2023-01-21T07:14:46.443Z,82.88
2023-01-21T07:17:12.923Z,86.28
2023-01-21T07:19:39.458Z,99.72
2023-01-21T07:22:05.938Z,95.03
2023-01-21T07:24:32.516Z,88.38
2023-01-21T07:26:59.039Z,83.03
2023-01-21T07:29:25.649Z,79.22
2023-01-21T07:31:52.252Z,79.80
2023-01-21T07:34:18.790Z,80.53
2023-01-21T07:36:45.276Z,82.82
2023-01-21T07:39:11.831Z,89.72
2023-01-21T07:41:38.333Z,84.80
2023-01-21T07:44:11.148Z,97.50
2023-01-21T07:46:37.704Z,99.07
2023-01-21T07:49:04.215Z,92.40
2023-01-21T07:51:30.748Z,90.47
2023-01-21T07:53:58.206Z,98.47
2023-01-21T07:56:26.651Z,95.60
2023-01-21T07:58:53.362Z,98.25
2023-01-21T08:01:19.918Z,84.93
2023-01-21T08:03:46.489Z,91.78
2023-01-21T08:06:13.347Z,98.20
2023-01-21T08:08:39.893Z,88.93
2023-01-21T08:11:06.495Z,103.00
2023-01-21T08:13:33.138Z,84.60
2023-01-21T08:15:59.701Z,89.13
2023-01-21T08:18:26.320Z,102.95
2023-01-21T08:20:56.798Z,109.13
2023-01-21T08:23:23.478Z,101.95
2023-01-21T08:25:50.474Z,105.38
2023-01-21T08:28:17.274Z,104.32
2023-01-21T08:30:44.150Z,103.00
2023-01-21T08:33:10.993Z,108.15
2023-01-21T08:35:37.528Z,91.53
2023-01-21T08:38:04.173Z,97.43
2023-01-21T08:40:30.672Z,99.78
2023-01-21T08:43:04.730Z,109.50
2023-01-21T08:45:31.501Z,99.85
2023-01-21T08:47:58.101Z,94.22
2023-01-21T08:50:24.732Z,101.68
2023-01-21T08:52:54.886Z,99.30
2023-01-21T08:55:22.346Z,97.03
2023-01-21T08:57:51.981Z,110.63
2023-01-21T09:00:19.659Z,97.32
2023-01-21T09:02:46.205Z,104.13
2023-01-21T09:05:12.700Z,81.47
2023-01-21T09:07:39.217Z,98.70
2023-01-21T09:10:06.344Z,98.72
2023-01-21T09:12:33.379Z,96.57
2023-01-21T09:14:59.986Z,96.97
2023-01-21T09:17:26.954Z,89.65
2023-01-21T09:19:55.396Z,95.43
2023-01-21T09:22:22.071Z,91.57
2023-01-21T09:24:48.599Z,100.68
2023-01-21T09:27:15.134Z,85.63
2023-01-21T09:29:41.701Z,100.40
2023-01-21T09:32:08.271Z,97.03
2023-01-21T09:34:35.988Z,102.95
2023-01-21T09:37:04.003Z,95.32
2023-01-21T09:39:30.493Z,101.30
2023-01-21T09:41:58.110Z,95.53
2023-01-21T09:44:29.894Z,101.13
2023-01-21T09:47:03.742Z,98.72
2023-01-21T09:49:35.135Z,90.97
2023-01-21T09:52:15.252Z,77.65
2023-01-21T09:54:41.767Z,84.78
2023-01-21T09:57:27.159Z,81.65
2023-01-21T10:00:08.727Z,90.50
2023-01-21T10:03:04.273Z,82.43
2023-01-21T10:05:55.071Z,82.47
2023-01-21T10:08:32.057Z,75.40
2023-01-21T10:11:18.593Z,80.85
2023-01-21T10:14:03.592Z,85.05
2023-01-21T10:16:51.141Z,88.10
2023-01-21T10:19:22.168Z,81.25
2023-01-21T10:21:52.602Z,81.45
2023-01-21T10:24:31.754Z,85.15
2023-01-21T10:26:59.404Z,80.50
2023-01-21T10:29:26.195Z,82.00
2023-01-21T10:32:04.129Z,70.78
2023-01-21T10:34:32.327Z,82.07
2023-01-21T10:37:14.164Z,64.35
2023-01-21T10:40:10.740Z,74.65
2023-01-21T10:42:51.501Z,74.63
2023-01-21T10:45:26.656Z,85.60
2023-01-21T10:48:14.514Z,92.55
2023-01-21T10:50:49.326Z,78.97
2023-01-21T10:53:18.357Z,80.07
2023-01-21T10:56:01.412Z,80.22
2023-01-21T10:58:36.036Z,77.82
2023-01-21T11:01:05.720Z,78.78
2023-01-21T11:03:38.957Z,78.55
2023-01-21T11:06:08.370Z,81.20
2023-01-21T11:08:35.047Z,82.72
2023-01-21T11:11:03.381Z,83.40
2023-01-21T11:13:29.981Z,83.00
2023-01-21T11:15:58.017Z,76.30
2023-01-21T11:18:30.558Z,76.53
2023-01-21T11:21:02.679Z,83.18
2023-01-21T11:23:32.225Z,74.47
2023-01-21T11:26:03.996Z,82.10
2023-01-21T11:28:30.818Z,87.50
2023-01-21T11:31:13.266Z,81.55
2023-01-21T11:33:41.438Z,90.00
2023-01-21T11:36:18.640Z,83.97
2023-01-21T11:38:47.315Z,75.70
2023-01-21T11:41:20.224Z,91.50
2023-01-21T11:43:50.182Z,74.65
2023-01-21T11:46:38.484Z,78.13
2023-01-21T11:49:07.993Z,66.05
2023-01-21T11:51:34.709Z,69.85
2023-01-21T11:54:23.296Z,73.20
2023-01-21T11:57:01.377Z,64.65
2023-01-21T11:59:32.967Z,61.25
2023-01-21T12:02:12.454Z,63.75
2023-01-21T12:04:43.829Z,62.35
2023-01-21T12:07:22.032Z,50.97
2023-01-21T12:10:10.117Z,55.70
2023-01-21T12:12:51.918Z,61.50
2023-01-21T12:16:03.737Z,53.50
2023-01-21T12:19:03.435Z,49.88
2023-01-21T12:21:51.450Z,58.67
2023-01-21T12:24:24.407Z,54.08
2023-01-21T12:27:04.457Z,60.85
2023-01-21T12:29:53.615Z,57.08
2023-01-21T12:32:37.305Z,56.70
2023-01-21T12:35:14.247Z,71.20
2023-01-21T12:37:48.970Z,65.85
2023-01-21T12:40:20.450Z,61.47
2023-01-21T12:42:53.308Z,60.97
2023-01-21T12:45:23.977Z,63.47
2023-01-21T12:47:50.644Z,56.83
2023-01-21T12:50:25.977Z,60.67
2023-01-21T12:53:14.746Z,53.15
2023-01-21T12:56:19.577Z,50.40
2023-01-21T12:58:55.037Z,58.50
2023-01-21T13:01:40.088Z,48.22
2023-01-21T13:04:31.463Z,49.00
2023-01-21T13:09:35.636Z,46.33
2023-01-21T13:12:05.618Z,50.42
2023-01-21T13:14:39.667Z,58.83
2023-01-21T13:17:19.782Z,49.90
2023-01-21T13:19:46.373Z,52.42
2023-01-21T13:22:39.164Z,56.05
2023-01-21T13:25:21.334Z,58.72
2023-01-21T13:28:02.853Z,60.35
2023-01-21T13:30:46.153Z,55.65
2023-01-21T13:33:30.343Z,50.65
2023-01-21T13:36:22.930Z,51.38
2023-01-21T13:39:03.646Z,53.42
2023-01-21T13:41:42.976Z,59.65
2023-01-21T13:44:27.786Z,50.78
2023-01-21T13:47:16.450Z,46.22
2023-01-21T13:50:06.448Z,55.83
2023-01-21T13:52:46.192Z,48.97
2023-01-21T13:55:38.851Z,53.38
2023-01-21T13:58:07.995Z,49.38
2023-01-21T14:00:42.659Z,43.95
2023-01-21T14:03:27.494Z,44.63
2023-01-21T14:06:07.881Z,47.03
2023-01-21T14:09:01.228Z,44.77
2023-01-21T14:11:55.093Z,54.58
2023-01-21T14:14:21.547Z,49.17
2023-01-21T14:17:16.225Z,42.80
2023-01-21T14:20:01.813Z,45.80
2023-01-21T14:22:31.027Z,46.58
2023-01-21T14:25:31.898Z,44.67
2023-01-21T14:28:10.300Z,43.78
2023-01-21T14:30:43.699Z,47.38
2023-01-21T14:33:18.526Z,31.60
2023-01-21T14:36:05.627Z,46.03
2023-01-21T14:38:41.320Z,46.05
2023-01-21T14:41:09.573Z,39.63
2023-01-21T14:43:36.571Z,43.17
2023-01-21T14:46:39.825Z,35.20
2023-01-21T14:49:11.772Z,28.60
2023-01-21T14:51:43.419Z,33.88
2023-01-21T14:54:19.134Z,24.13
2023-01-21T14:57:04.167Z,30.48
2023-01-21T14:59:41.731Z,27.45
2023-01-21T15:02:34.318Z,25.60
2023-01-21T15:05:03.669Z,27.20
2023-01-21T15:07:39.495Z,22.63
2023-01-21T15:10:19.124Z,24.58
2023-01-21T15:12:56.881Z,22.23
2023-01-21T15:15:40.619Z,24.63
2023-01-21T15:18:10.201Z,27.23
2023-01-21T15:20:42.450Z,20.23
2023-01-21T15:23:20.205Z,31.08
2023-01-21T15:26:01.712Z,20.38
2023-01-21T15:28:55.723Z,22.52
2023-01-21T15:31:24.534Z,28.92
2023-01-21T15:33:57.320Z,30.73
2023-01-21T15:36:35.396Z,30.55
2023-01-21T15:39:10.947Z,30.15
2023-01-21T15:42:03.522Z,28.35
2023-01-21T15:45:02.326Z,30.42
2023-01-21T15:47:31.501Z,33.38
2023-01-21T15:50:16.451Z,36.60
2023-01-21T15:53:17.023Z,32.03
2023-01-21T15:55:55.571Z,25.37
2023-01-21T15:58:56.950Z,34.40
2023-01-21T16:04:03.534Z,34.95
2023-01-21T16:07:04.130Z,23.55
2023-01-21T16:09:39.505Z,23.52
2023-01-21T16:12:24.955Z,33.35
2023-01-21T16:15:11.277Z,29.10
2023-01-21T16:17:50.000Z,23.65
2023-01-21T16:20:17.260Z,28.90
2023-01-21T16:22:47.146Z,27.30
2023-01-21T16:25:17.351Z,23.50
2023-01-21T16:27:48.743Z,24.02
2023-01-21T16:30:19.679Z,36.88
2023-01-21T16:32:47.119Z,31.38
2023-01-21T16:35:13.625Z,33.08
2023-01-21T16:37:43.577Z,32.15
2023-01-21T16:40:25.943Z,29.52
2023-01-21T16:43:06.806Z,31.70
2023-01-21T16:45:33.364Z,26.92
2023-01-21T16:48:00.634Z,32.42
2023-01-21T16:50:29.077Z,32.95
2023-01-21T16:52:56.695Z,27.65
2023-01-21T16:55:26.228Z,32.92
2023-01-21T16:57:54.823Z,31.70
2023-01-21T17:00:30.111Z,32.50
2023-01-21T17:02:59.167Z,35.20
2023-01-21T17:05:28.547Z,37.55
2023-01-21T17:07:57.817Z,27.38
2023-01-21T17:10:34.115Z,31.58
2023-01-21T17:13:02.547Z,27.95
2023-01-21T17:15:36.179Z,32.08
2023-01-21T17:18:04.227Z,25.67
2023-01-21T17:20:37.854Z,34.25
2023-01-21T17:23:18.970Z,29.13
2023-01-21T17:25:51.179Z,19.83
2023-01-21T17:28:24.632Z,30.05
2023-01-21T17:31:08.932Z,26.08
2023-01-21T17:33:35.586Z,21.23
2023-01-21T17:36:30.171Z,20.75
2023-01-21T17:38:56.650Z,26.05
2023-01-21T17:41:34.524Z,25.33
2023-01-21T17:44:06.964Z,21.88
2023-01-21T17:46:33.728Z,22.38
2023-01-21T17:49:07.671Z,25.98
2023-01-21T17:51:34.751Z,23.55
2023-01-21T17:54:03.686Z,28.70
2023-01-21T17:56:40.234Z,28.65
2023-01-21T17:59:31.467Z,23.85
2023-01-21T18:04:24.640Z,24.17
2023-01-21T18:06:52.805Z,20.45
2023-01-21T18:09:20.665Z,27.67
2023-01-21T18:11:48.972Z,23.40
2023-01-21T18:14:17.956Z,26.27
2023-01-21T18:16:45.481Z,29.85
2023-01-21T18:19:35.997Z,23.25
2023-01-21T18:22:04.986Z,29.37
2023-01-21T18:24:31.953Z,26.15
2023-01-21T18:27:02.065Z,29.77
2023-01-21T18:29:31.442Z,20.65
2023-01-21T18:31:58.729Z,28.35
2023-01-21T18:34:25.740Z,32.38
2023-01-21T18:36:52.355Z,33.30
2023-01-21T18:39:19.916Z,32.20
2023-01-21T18:41:46.690Z,34.38
2023-01-21T18:44:13.339Z,31.83
2023-01-21T18:46:42.250Z,40.65
2023-01-21T18:49:14.132Z,30.75
2023-01-21T18:51:40.799Z,30.52
2023-01-21T18:54:07.678Z,38.80
2023-01-21T18:56:35.726Z,34.85
2023-01-21T18:59:02.287Z,37.50
2023-01-21T19:01:29.059Z,43.17
2023-01-21T19:03:55.744Z,43.40
2023-01-21T19:06:23.695Z,35.83
2023-01-21T19:08:50.258Z,47.42
2023-01-21T19:11:17.933Z,36.53
2023-01-21T19:13:44.550Z,36.20
2023-01-21T19:16:15.895Z,46.65
2023-01-21T19:18:42.468Z,34.65
2023-01-21T19:21:09.040Z,39.08
2023-01-21T19:23:37.116Z,41.20
2023-01-21T19:26:04.617Z,37.58
2023-01-21T19:28:31.439Z,38.55
2023-01-21T19:30:58.758Z,43.30
2023-01-21T19:33:25.653Z,44.20
2023-01-21T19:35:58.497Z,43.03
2023-01-21T19:38:26.236Z,43.70
2023-01-21T19:40:52.872Z,48.53
2023-01-21T19:43:23.150Z,47.65
2023-01-21T19:45:52.094Z,46.35
2023-01-21T19:48:20.635Z,49.10
2023-01-21T19:50:47.382Z,45.65
2023-01-21T19:53:15.667Z,41.35
2023-01-21T19:55:42.718Z,50.13
2023-01-21T19:58:19.357Z,47.50
2023-01-21T20:00:50.952Z,45.78
2023-01-21T20:03:19.100Z,45.03
2023-01-21T20:05:46.821Z,48.80
2023-01-21T20:08:15.369Z,56.35
2023-01-21T20:10:41.975Z,49.95
2023-01-21T20:13:12.986Z,55.70
2023-01-21T20:15:40.451Z,54.95
2023-01-21T20:18:07.375Z,52.45
2023-01-21T20:20:33.870Z,54.85
2023-01-21T20:23:01.049Z,55.20
2023-01-21T20:25:37.326Z,63.67
2023-01-21T20:28:14.526Z,58.42
2023-01-21T20:30:41.066Z,58.33
2023-01-21T20:33:14.066Z,62.00
2023-01-21T20:35:40.721Z,66.05
2023-01-21T20:38:11.930Z,59.03
2023-01-21T20:40:38.515Z,60.38
2023-01-21T20:43:05.721Z,63.92
2023-01-21T20:45:35.551Z,57.88
2023-01-21T20:48:02.686Z,67.43
2023-01-21T20:50:35.427Z,59.50
2023-01-21T20:53:02.758Z,58.03
2023-01-21T20:55:30.484Z,66.95
2023-01-21T20:57:57.244Z,62.83
2023-01-21T21:00:26.016Z,60.58
2023-01-21T21:02:55.376Z,65.78
2023-01-21T21:05:22.426Z,67.97
2023-01-21T21:07:48.991Z,67.13
2023-01-21T21:10:21.727Z,58.55
2023-01-21T21:12:49.158Z,62.83
2023-01-21T21:15:16.914Z,69.88
2023-01-21T21:17:46.801Z,66.95
2023-01-21T21:20:21.455Z,61.53
2023-01-21T21:22:47.928Z,63.53
2023-01-21T21:25:19.708Z,68.88
2023-01-21T21:27:46.742Z,62.50
2023-01-21T21:30:15.860Z,59.78
2023-01-21T21:32:42.505Z,71.97
2023-01-21T21:35:25.370Z,65.43
2023-01-21T21:37:53.045Z,76.45
2023-01-21T21:40:22.404Z,57.05
2023-01-21T21:43:07.803Z,70.80
2023-01-21T21:45:36.388Z,60.58
2023-01-21T21:48:23.553Z,64.03
2023-01-21T21:50:56.872Z,54.97
2023-01-21T21:53:23.506Z,69.22
2023-01-21T21:55:50.096Z,52.22
2023-01-21T21:58:16.590Z,59.05
2023-01-21T22:00:43.167Z,52.83
2023-01-21T22:03:10.832Z,56.47
2023-01-21T22:05:37.637Z,65.07
2023-01-21T22:08:04.268Z,60.97
2023-01-21T22:10:30.784Z,58.55
2023-01-21T22:12:57.323Z,64.93
2023-01-21T22:15:23.821Z,62.92
2023-01-21T22:17:50.336Z,69.05
2023-01-21T22:20:17.285Z,62.25
2023-01-21T22:22:43.800Z,65.22
2023-01-21T22:25:11.775Z,65.85
2023-01-21T22:27:38.379Z,59.28
2023-01-21T22:30:05.459Z,69.30
2023-01-21T22:32:31.999Z,62.08
2023-01-21T22:34:58.514Z,60.88
2023-01-21T22:37:25.023Z,65.68
2023-01-21T22:39:51.594Z,56.47
2023-01-21T22:42:18.157Z,54.10
2023-01-21T22:44:44.642Z,58.50
2023-01-21T22:47:11.165Z,60.78
2023-01-21T22:49:37.751Z,51.00
2023-01-21T22:52:04.785Z,54.40
2023-01-21T22:54:31.306Z,64.13
2023-01-21T22:56:57.880Z,62.00
2023-01-21T22:59:24.398Z,74.88
2023-01-21T23:01:51.154Z,50.35
2023-01-21T23:04:17.907Z,65.40
2023-01-21T23:06:44.771Z,62.55
2023-01-21T23:09:15.695Z,53.75
2023-01-21T23:11:42.331Z,52.03
2023-01-21T23:14:09.855Z,68.40
2023-01-21T23:16:36.510Z,58.50
2023-01-21T23:19:03.282Z,68.38
2023-01-21T23:21:29.871Z,63.22
2023-01-21T23:23:56.306Z,65.00
2023-01-21T23:26:23.047Z,57.25
2023-01-21T23:28:53.902Z,67.90
2023-01-21T23:31:20.521Z,60.13
2023-01-21T23:33:54.155Z,63.95
2023-01-21T23:36:20.723Z,54.10
2023-01-21T23:38:47.318Z,52.80
2023-01-21T23:41:19.739Z,67.60
2023-01-21T23:43:46.695Z,62.83
2023-01-21T23:46:19.522Z,61.83
2023-01-21T23:48:46.259Z,63.03
2023-01-21T23:51:14.468Z,61.10
2023-01-21T23:53:41.130Z,53.47
2023-01-21T23:56:14.039Z,47.85
2023-01-21T23:58:40.967Z,64.25
